THY8N LTFM-ZSPD
Flight info
| Callsign | THY8N |
|---|---|
| Flight time | N/A |
| Altitude | 29000 |
| Route | EKAWE1D/35L EKAWE UT643 GAKSU UT310 SIN DCT ROLIN DCT FOQUS DCT LAGAS DCT DISKA/N0494F310 M737 VERCA M747 BAGVA DCT LEYLA N161 GASBI/K0917F310 N161 BURID/K0900F330 N161 SARIN/K0900S1010 A368 FKG W188 LIKMI W270 DKO W64 NUTLO B208 CGO W129 KAMDA W128 FYG B208 HFE R343 SASAN SAS81A |
| Aircraft | B77L/H-SDE1E2E3FGHIJ2J3J4J5M1RWXY/LB1D1 |
Departure
| Time | N/A |
|---|---|
| Airport | İstanbul Airport (LTFM) |
Arrival
| Time | 2026-05-03 20:28 |
|---|---|
| Airport | Shanghai Pudong International Airport (ZSPD) |
| Time | Latitude | Longitude | Altitude | Speed | Heading |
|---|---|---|---|---|---|
| 2026-05-03 20:15 | 31.12853 | 121.35343 | 11699 ft | 394 kts | 107° |
| 2026-05-03 20:15 | 31.12349 | 121.38428 | 11521 ft | 381 kts | 90° |
| 2026-05-03 20:15 | 31.12373 | 121.41466 | 11372 ft | 369 kts | 85° |
| 2026-05-03 20:15 | 31.12465 | 121.44419 | 11197 ft | 361 kts | 84° |
| 2026-05-03 20:16 | 31.12555 | 121.47279 | 10992 ft | 343 kts | 84° |
| 2026-05-03 20:16 | 31.12632 | 121.49997 | 10750 ft | 328 kts | 84° |
| 2026-05-03 20:16 | 31.12697 | 121.52593 | 10549 ft | 312 kts | 84° |
| 2026-05-03 20:16 | 31.12757 | 121.55119 | 10211 ft | 310 kts | 84° |
| 2026-05-03 20:17 | 31.12812 | 121.57615 | 9892 ft | 306 kts | 84° |
| 2026-05-03 20:17 | 31.12862 | 121.60085 | 9531 ft | 303 kts | 84° |
| 2026-05-03 20:17 | 31.12910 | 121.62533 | 9136 ft | 301 kts | 84° |
| 2026-05-03 20:17 | 31.12916 | 121.64933 | 8716 ft | 298 kts | 92° |
| 2026-05-03 20:18 | 31.12177 | 121.67216 | 8346 ft | 299 kts | 130° |
| 2026-05-03 20:18 | 31.10507 | 121.68564 | 8384 ft | 294 kts | 166° |
| 2026-05-03 20:18 | 31.08497 | 121.68951 | 8423 ft | 297 kts | 171° |
| 2026-05-03 20:18 | 31.06465 | 121.69598 | 8459 ft | 316 kts | 162° |
| 2026-05-03 20:19 | 31.04337 | 121.70475 | 8116 ft | 325 kts | 161° |
| 2026-05-03 20:19 | 31.02206 | 121.71360 | 7736 ft | 324 kts | 162° |
| 2026-05-03 20:19 | 31.00114 | 121.72198 | 7369 ft | 321 kts | 162° |
| 2026-05-03 20:19 | 30.98011 | 121.73025 | 7022 ft | 317 kts | 162° |
| 2026-05-03 20:20 | 30.95949 | 121.73835 | 6846 ft | 307 kts | 161° |
| 2026-05-03 20:20 | 30.93933 | 121.74580 | 6565 ft | 295 kts | 164° |
| 2026-05-03 20:20 | 30.92017 | 121.75224 | 6306 ft | 280 kts | 164° |
| 2026-05-03 20:20 | 30.90196 | 121.75843 | 6000 ft | 266 kts | 164° |
| 2026-05-03 20:21 | 30.88443 | 121.76447 | 5571 ft | 260 kts | 164° |
| 2026-05-03 20:21 | 30.86761 | 121.77116 | 5232 ft | 250 kts | 148° |
| 2026-05-03 20:21 | 30.85642 | 121.78522 | 4897 ft | 233 kts | 102° |
| 2026-05-03 20:21 | 30.85637 | 121.80356 | 4736 ft | 233 kts | 63° |
| 2026-05-03 20:22 | 30.86258 | 121.82143 | 4495 ft | 241 kts | 63° |
| 2026-05-03 20:22 | 30.86962 | 121.83880 | 4170 ft | 232 kts | 45° |
| 2026-05-03 20:22 | 30.88237 | 121.84880 | 3894 ft | 219 kts | 12° |
| 2026-05-03 20:22 | 30.89702 | 121.85432 | 3646 ft | 228 kts | 20° |
| 2026-05-03 20:23 | 30.91153 | 121.86250 | 3373 ft | 235 kts | 23° |
| 2026-05-03 20:23 | 30.92657 | 121.86906 | 3039 ft | 228 kts | 1° |
| 2026-05-03 20:23 | 30.94169 | 121.86685 | 3034 ft | 219 kts | 346° |
| 2026-05-03 20:23 | 30.95679 | 121.86265 | 3015 ft | 223 kts | 343° |
| 2026-05-03 20:24 | 30.97135 | 121.85765 | 2987 ft | 212 kts | 341° |
| 2026-05-03 20:24 | 30.98500 | 121.85254 | 2935 ft | 202 kts | 340° |
| 2026-05-03 20:24 | 30.99813 | 121.84758 | 2689 ft | 195 kts | 340° |
| 2026-05-03 20:24 | 31.01074 | 121.84282 | 2429 ft | 185 kts | 340° |
| 2026-05-03 20:25 | 31.02251 | 121.83838 | 2157 ft | 171 kts | 339° |
| 2026-05-03 20:25 | 31.03336 | 121.83428 | 1930 ft | 162 kts | 339° |
| 2026-05-03 20:25 | 31.04430 | 121.83018 | 1720 ft | 167 kts | 339° |
| 2026-05-03 20:25 | 31.05537 | 121.82591 | 1465 ft | 167 kts | 339° |
| 2026-05-03 20:26 | 31.06642 | 121.82165 | 1255 ft | 167 kts | 340° |
| 2026-05-03 20:26 | 31.07753 | 121.81752 | 1018 ft | 168 kts | 340° |
| 2026-05-03 20:26 | 31.08872 | 121.81334 | 828 ft | 171 kts | 340° |
| 2026-05-03 20:26 | 31.10018 | 121.80896 | 586 ft | 175 kts | 341° |
| 2026-05-03 20:27 | 31.11166 | 121.80453 | 336 ft | 172 kts | 340° |
| 2026-05-03 20:27 | 31.12257 | 121.80042 | 168 ft | 168 kts | 342° |
| 2026-05-03 20:27 | 31.13362 | 121.79639 | 38 ft | 164 kts | 342° |
| 2026-05-03 20:27 | 31.14375 | 121.79263 | 27 ft | 139 kts | 342° |
| 2026-05-03 20:28 | 31.15186 | 121.78954 | 26 ft | 105 kts | 342° |
| 2026-05-03 20:28 | 31.15652 | 121.78778 | 26 ft | 46 kts | 342° |
| 2026-05-03 20:28 | 31.15844 | 121.78706 | 27 ft | 13 kts | 342° |
| 2026-05-03 20:28 | 31.15926 | 121.78710 | 26 ft | 13 kts | 49° |
| 2026-05-03 20:29 | 31.15956 | 121.78810 | 27 ft | 13 kts | 73° |
| 2026-05-03 20:29 | 31.15982 | 121.78910 | 28 ft | 13 kts | 73° |
| 2026-05-03 20:29 | 31.15984 | 121.78971 | 27 ft | 9 kts | 94° |
| 2026-05-03 20:29 | 31.15989 | 121.79041 | 27 ft | 8 kts | 80° |
| 2026-05-03 20:30 | 31.15998 | 121.79070 | 27 ft | 1 kts | 70° |
| 2026-05-03 20:30 | 31.15999 | 121.79075 | 27 ft | 1 kts | 70° |
| 2026-05-03 20:30 | 31.16002 | 121.79083 | 27 ft | 0 kts | 70° |